createdAt,value
2022-10-23T00:22:44.930Z,11.72
2022-10-23T05:38:19.029Z,11.12
2022-10-23T06:07:09.331Z,11.01
2022-10-23T06:36:07.762Z,11.13
2022-10-23T07:04:51.231Z,11.4
2022-10-23T07:33:23.667Z,12.14
2022-10-23T08:02:02.596Z,15.25
2022-10-23T08:30:38.820Z,14.96
2022-10-23T08:59:19.331Z,15.63
2022-10-23T09:28:17.236Z,15.99
2022-10-23T09:57:20.547Z,16.68
2022-10-23T10:25:57.843Z,17.17
2022-10-23T10:54:40.177Z,17.57
2022-10-23T11:23:30.995Z,17.98
2022-10-23T11:52:21.634Z,18.15
2022-10-23T12:20:59.630Z,18.48
2022-10-23T12:49:47.682Z,18.82
2022-10-23T13:18:44.234Z,18.61
2022-10-23T13:47:26.318Z,18.78
2022-10-23T14:16:11.991Z,18.41
2022-10-23T14:44:45.915Z,18.54
2022-10-23T15:13:30.148Z,18.34
2022-10-23T15:42:24.025Z,18.17
2022-10-23T16:11:01.468Z,17.51
2022-10-23T16:39:39.241Z,17.03
2022-10-23T17:08:14.997Z,16.91
2022-10-23T17:40:01.860Z,16.56
2022-10-23T18:07:58.474Z,16.64
2022-10-23T18:36:36.410Z,16.74
2022-10-23T19:05:26.598Z,16.83
2022-10-23T19:34:05.838Z,16.93
2022-10-23T20:02:54.467Z,17.13
2022-10-23T20:31:22.166Z,19.14
2022-10-23T21:00:14.377Z,19.28
2022-10-23T21:29:20.233Z,19.73
2022-10-23T21:57:30.913Z,19.71
2022-10-23T22:26:10.092Z,19.46
2022-10-23T22:54:53.334Z,19.24
2022-10-23T23:23:40.368Z,19.27
2022-10-23T23:52:21.281Z,19.12
